Latest Weather Observations for Aireys Inlet

IDV60801

Issued at 10:02 pm EST Friday 27 May 2016 (issued every 30 minutes, with the page automatically refreshed every 10 minutes)

About weather observations | Map of weather stations | Latest weather observations for VIC | Other Formats
Station Details ID: 090180 Name: AIREYS INLET Lat: -38.46 Lon: 144.09 Height: 95.0 m
Data from the previous 72 hours. | See also: Recent months at Aireys Inlet
Date/Time
EST
Temp
°C
App
Temp
°C
Dew
Point
Rel
Hum
%
Delta-T
°C
Wind Press
QNH
hPa
Press
MSL
hPa
Rain
since 9 am
mm
Dir
 
Spd
km/h
Gust
km/h
Spd
kts
Gust
kts
27/10:00pm 9.1 7.5 6.4 83 1.3 W 4 6 2 3 - - 0.0
27/09:30pm 9.0 7.4 6.3 83 1.3 WSW 4 6 2 3 - - 0.0
27/09:00pm 8.2 6.6 6.2 87 0.9 WNW 4 6 2 3 - - 0.0
27/08:30pm 8.3 6.3 6.4 88 0.9 WNW 6 6 3 3 - - 0.0
27/08:00pm 8.2 7.0 6.3 88 0.9 NW 2 7 1 4 - - 0.0
27/07:30pm 7.8 5.6 6.3 90 0.7 NW 7 9 4 5 - - 0.0
27/07:00pm 8.3 6.4 6.6 89 0.8 NW 6 9 3 5 - - 0.0
27/06:30pm 8.8 7.6 6.4 85 1.1 NW 2 4 1 2 - - 0.0
27/06:00pm 9.3 8.1 6.4 82 1.3 W 2 2 1 1 - - 0.0
27/05:30pm 9.6 7.5 6.0 78 1.7 SW 6 7 3 4 - - 0.0
27/05:00pm 10.3 8.3 6.1 75 2.0 SSW 6 9 3 5 - - 0.0
27/04:30pm 11.4 9.8 6.5 72 2.3 SW 4 6 2 3 - - 0.0
27/04:00pm 12.7 10.9 7.0 68 2.8 SW 6 9 3 5 - - 0.0
27/03:30pm 11.3 9.9 7.4 77 1.9 SSW 4 7 2 4 - - 0.0
27/03:00pm 11.3 9.3 7.0 75 2.1 S 7 13 4 7 - - 0.0
27/02:30pm 12.1 10.4 7.4 73 2.3 S 6 15 3 8 - - 0.0
27/02:00pm 13.3 11.6 7.5 68 2.9 S 6 11 3 6 - - 0.0
27/01:30pm 12.5 10.5 7.2 70 2.6 WNW 7 11 4 6 - - 0.0
27/01:00pm 12.9 11.1 7.8 71 2.5 W 7 9 4 5 - - 0.0
27/12:30pm 11.1 8.4 7.4 78 1.8 NW 11 13 6 7 - - 0.0
27/12:00pm 11.6 9.2 7.1 74 2.2 WSW 9 15 5 8 - - 0.0
27/11:30am 11.6 8.9 7.3 75 2.1 W 11 17 6 9 - - 0.0
27/11:00am 11.2 8.1 7.3 77 1.9 WNW 13 28 7 15 - - 0.0
27/10:30am 10.6 7.1 7.3 80 1.6 NW 15 19 8 10 - - 0.0
27/10:00am 10.7 7.6 7.2 79 1.7 NW 13 17 7 9 - - 0.0
27/09:30am 9.9 6.4 7.0 82 1.4 NW 15 19 8 10 - - 0.0
27/09:00am 8.8 5.5 6.4 85 1.1 NW 13 15 7 8 - - 2.8
27/08:30am 9.1 5.4 6.5 84 1.2 NW 15 19 8 10 - - 2.8
27/08:00am 9.1 5.8 6.5 84 1.2 WNW 13 19 7 10 - - 2.8
27/07:30am 8.7 5.0 6.3 85 1.1 WNW 15 19 8 10 - - 2.8
27/07:00am 8.2 4.5 6.2 87 0.9 WNW 15 19 8 10 - - 2.8
27/06:30am 7.9 4.8 5.7 86 1.0 NW 11 13 6 7 - - 2.8
27/06:00am 8.0 4.3 6.1 88 0.9 WNW 15 20 8 11 - - 2.8
27/05:30am 8.1 4.4 6.1 87 0.9 WNW 15 22 8 12 - - 2.8
27/05:00am 7.8 3.7 6.1 89 0.8 NW 17 22 9 12 - - 2.8
27/04:30am 7.9 4.1 6.0 88 0.9 NW 15 19 8 10 - - 2.8
27/04:00am 7.8 4.0 5.8 87 0.9 WNW 15 20 8 11 - - 2.8
27/03:30am 8.2 4.0 5.8 85 1.1 WNW 17 22 9 12 - - 2.8
27/03:00am 8.0 4.3 6.1 88 0.9 WNW 15 20 8 11 - - 2.8
27/02:30am 8.4 5.0 5.7 83 1.2 WNW 13 20 7 11 - - 2.8
27/02:00am 8.0 4.6 5.8 86 1.0 NW 13 17 7 9 - - 2.8
27/01:30am 8.2 4.2 5.1 81 1.4 WNW 15 19 8 10 - - 2.8
27/01:00am 8.8 5.2 5.0 77 1.7 WNW 13 17 7 9 - - 2.8
27/12:30am 9.7 4.9 4.7 71 2.2 WSW 19 30 10 16 - - 2.8
27/12:00am 9.2 4.6 5.6 78 1.6 W 19 24 10 13 - - 2.8
 
Date/Time
EST
Temp
°C
App
Temp
°C
Dew
Point
Rel
Hum
%
Delta-T
°C
Wind Press
QNH
hPa
Press
MSL
hPa
Rain
since 9 am
mm
Dir
 
Spd
km/h
Gust
km/h
Spd
kts
Gust
kts
26/11:30pm 9.1 4.5 5.5 78 1.6 W 19 26 10 14 - - 2.8
26/11:00pm 9.1 4.5 5.7 79 1.6 WNW 19 24 10 13 - - 2.8
26/10:30pm 9.4 5.1 5.2 75 1.9 W 17 22 9 12 - - 2.8
26/10:00pm 9.7 4.9 4.9 72 2.2 W 19 26 10 14 - - 2.8
26/09:30pm 10.3 4.3 5.1 70 2.4 WSW 26 37 14 20 - - 2.8
26/09:00pm 9.1 4.9 5.5 78 1.6 W 17 22 9 12 - - 2.8
26/08:30pm 9.0 4.4 5.4 78 1.6 W 19 24 10 13 - - 2.8
26/08:00pm 9.1 4.8 5.3 77 1.7 W 17 22 9 12 - - 2.8
26/07:30pm 9.4 4.5 5.0 74 2.0 W 20 28 11 15 - - 2.8
26/07:00pm 9.3 5.1 5.7 78 1.6 W 17 20 9 11 - - 2.8
26/06:30pm 9.9 6.0 7.2 83 1.3 WSW 17 22 9 12 - - 2.8
26/06:00pm 10.1 5.1 6.4 78 1.7 WSW 22 35 12 19 - - 2.8
26/05:30pm 10.3 5.3 6.5 77 1.8 WSW 22 30 12 16 - - 2.8
26/05:00pm 10.4 5.7 7.6 83 1.3 WSW 22 32 12 17 - - 2.8
26/04:30pm 11.3 6.6 7.8 79 1.7 WSW 22 32 12 17 - - 2.8
26/04:00pm 11.0 6.1 8.6 85 1.2 WSW 24 33 13 18 - - 2.8
26/03:30pm 11.7 8.6 8.9 83 1.4 WSW 15 37 8 20 - - 2.8
26/03:00pm 11.4 7.2 8.3 81 1.5 WSW 20 28 11 15 - - 2.8
26/02:30pm 10.8 5.9 8.6 86 1.1 WSW 24 35 13 19 - - 2.6
26/02:00pm 11.2 7.2 9.1 87 1.1 SW 20 30 11 16 - - 2.6
26/01:30pm 11.2 9.6 10.1 93 0.6 WSW 9 15 5 8 - - 2.6
26/01:00pm 10.7 7.0 9.6 93 0.6 WSW 19 33 10 18 - - 2.6
26/12:30pm 10.8 7.6 9.9 94 0.5 SW 17 26 9 14 - - 2.4
26/12:00pm 10.9 7.7 10.1 95 0.4 WSW 17 24 9 13 - - 1.8
26/11:30am 10.6 6.4 9.7 94 0.5 SW 22 39 12 21 - - 1.6
26/11:00am 10.9 8.9 10.1 95 0.4 SW 11 17 6 9 - - 0.8
26/10:30am 10.9 8.5 10.1 95 0.4 SSW 13 28 7 15 - - 0.6
26/10:00am 10.6 7.7 9.8 95 0.4 SW 15 26 8 14 - - 0.6
26/09:30am 10.4 6.7 9.6 95 0.4 SW 19 28 10 15 - - 0.2
26/09:00am 10.3 5.7 9.5 95 0.4 SW 24 35 13 19 - - 10.8
26/08:30am 10.1 6.7 9.3 95 0.4 WSW 17 22 9 12 - - 9.8
26/08:00am 10.0 7.0 9.2 95 0.4 WSW 15 24 8 13 - - 9.2
26/07:30am 9.9 7.6 9.1 95 0.4 WSW 11 15 6 8 - - 8.2
26/07:00am 9.9 7.6 9.1 95 0.4 WNW 11 17 6 9 - - 7.0
26/06:30am 9.9 7.2 9.1 95 0.4 NW 13 19 7 10 - - 5.4
26/06:00am 9.9 6.9 9.1 95 0.4 NW 15 20 8 11 - - 3.0
26/05:30am 10.0 7.3 9.1 94 0.4 NW 13 20 7 11 - - 2.6
26/05:00am 10.0 6.2 9.1 94 0.4 NW 19 26 10 14 - - 2.4
26/04:30am 10.2 6.4 9.1 93 0.5 NW 19 28 10 15 - - 1.4
26/04:00am 10.1 5.7 9.0 93 0.5 NW 22 32 12 17 - - 1.4
26/03:30am 10.0 5.3 9.1 94 0.4 NW 24 35 13 19 - - 1.4
26/03:00am 10.1 4.9 9.0 93 0.5 NW 26 37 14 20 - - 1.4
26/02:30am 10.1 6.6 8.9 92 0.6 NW 17 32 9 17 - - 1.2
26/02:00am 10.4 6.9 8.8 90 0.8 NNW 17 32 9 17 - - 0.6
26/01:30am 10.6 7.0 8.5 87 1.0 NNW 17 32 9 17 - - 0.6
26/01:00am 10.6 7.0 8.5 87 1.0 NNW 17 32 9 17 - - 0.6
26/12:30am 10.5 6.6 8.6 88 0.9 NNW 19 35 10 19 - - 0.6
26/12:00am 10.2 6.3 8.6 90 0.8 NNW 19 32 10 17 - - 0.6
 
Date/Time
EST
Temp
°C
App
Temp
°C
Dew
Point
Rel
Hum
%
Delta-T
°C
Wind Press
QNH
hPa
Press
MSL
hPa
Rain
since 9 am
mm
Dir
 
Spd
km/h
Gust
km/h
Spd
kts
Gust
kts
25/11:30pm 10.2 6.1 8.6 90 0.8 NNW 20 35 11 19 - - 0.6
25/11:00pm 10.4 6.5 8.7 89 0.8 N 19 32 10 17 - - 0.4
25/10:30pm 10.6 8.2 8.5 87 1.0 NNW 11 24 6 13 - - 0.4
25/10:00pm 10.3 7.2 8.7 90 0.8 NNW 15 24 8 13 - - 0.4
25/09:30pm 10.1 7.8 9.0 93 0.5 N 11 19 6 10 - - 0.4
25/09:00pm 10.1 6.3 8.9 92 0.6 N 19 32 10 17 - - 0.4
25/08:30pm 10.3 5.1 8.9 91 0.7 N 26 37 14 20 - - 0.2
25/08:00pm 10.4 4.8 8.8 90 0.8 NNW 28 44 15 24 - - 0.2
25/07:30pm 10.6 4.7 9.2 91 0.7 N 30 46 16 25 - - 0.2
25/07:00pm 10.6 5.9 9.2 91 0.7 N 24 43 13 23 - - 0.0
25/06:30pm 10.7 6.7 9.1 90 0.8 N 20 43 11 23 - - 0.0
25/06:00pm 10.9 7.5 9.0 88 0.9 N 17 28 9 15 - - 0.0
25/05:30pm 10.8 5.6 8.9 88 0.9 NNW 26 39 14 21 - - 0.0
25/05:00pm 10.7 5.9 9.0 89 0.8 NNW 24 41 13 22 - - 0.0
25/04:30pm 10.8 6.0 8.9 88 0.9 NNW 24 35 13 19 - - 0.0
25/04:00pm 11.5 5.8 8.4 81 1.5 NNW 28 46 15 25 - - 0.0
25/03:50pm 11.9 6.2 8.2 78 1.8 N 28 48 15 26 - - 0.0
25/03:30pm 12.1 7.5 8.2 77 1.9 N 22 30 12 16 - - 0.0
25/03:00pm 12.1 9.2 8.2 77 1.9 N 13 19 7 10 - - 0.0
25/02:30pm 12.0 8.7 8.1 77 1.9 N 15 26 8 14 - - 0.0
25/02:00pm 12.5 8.3 7.6 72 2.4 NNW 19 30 10 16 - - 0.0
25/01:30pm 13.9 6.5 6.7 62 3.5 NNW 35 56 19 30 - - 0.0
25/01:00pm 15.7 8.7 5.9 52 4.7 NNW 32 54 17 29 - - 0.0
25/12:30pm 15.1 6.8 5.9 54 4.4 NNW 39 61 21 33 - - 0.0
25/12:13pm 16.1 9.3 7.1 55 4.5 NNW 32 50 17 27 - - 0.0
25/12:00pm 15.5 8.2 7.0 57 4.2 NNW 35 54 19 29 - - 0.0
25/11:30am 14.2 6.3 6.3 59 3.8 NNW 37 57 20 31 - - 0.0
25/11:03am 13.9 7.7 6.3 60 3.7 N 28 56 15 30 - - 0.0
25/11:00am 13.7 8.4 6.6 62 3.4 N 24 41 13 22 - - 0.0
25/10:47am 13.4 7.3 6.7 64 3.2 N 28 46 15 25 - - 0.0
25/10:30am 13.1 8.7 7.3 68 2.8 N 20 33 11 18 - - 0.0
25/10:00am 13.0 8.9 7.9 71 2.5 N 19 35 10 19 - - 0.0
25/09:30am 13.1 8.9 8.2 72 2.4 N 20 35 11 19 - - 0.0
25/09:00am 13.1 7.4 8.4 73 2.4 NNW 28 43 15 23 - - 0.0
25/08:30am 12.3 6.2 8.4 77 1.9 NNW 30 44 16 24 - - -
25/08:00am 11.7 6.4 8.4 80 1.6 NW 26 37 14 20 - - -
25/07:30am 11.7 7.2 8.4 80 1.6 NNW 22 33 12 18 - - -
25/07:00am 11.7 6.8 8.6 81 1.5 NW 24 32 13 17 - - 0.0
25/06:30am 12.1 5.5 8.6 79 1.7 NW 33 43 18 23 - - 0.0
25/06:00am 12.3 6.7 8.6 78 1.8 NW 28 43 15 23 - - 0.0
25/05:30am 12.4 10.0 8.7 78 1.9 NNW 11 26 6 14 - - 0.0
25/05:00am 12.0 8.9 8.7 80 1.6 NW 15 22 8 12 - - 0.0
25/04:30am 11.4 8.2 8.4 82 1.5 NW 15 24 8 13 - - 0.0
25/04:00am 11.0 7.3 8.1 82 1.4 NW 17 26 9 14 - - 0.0
25/03:30am 11.2 6.6 8.1 81 1.5 NW 22 28 12 15 - - 0.0
25/03:00am 11.6 6.2 8.1 79 1.7 NW 26 32 14 17 - - 0.0
25/02:30am 10.6 6.5 7.8 83 1.4 NW 19 28 10 15 - - 0.0
25/02:00am 9.7 7.0 7.5 86 1.1 NNW 11 17 6 9 - - 0.0
25/01:30am 9.5 8.1 7.3 86 1.0 NNW 4 6 2 3 - - 0.0
25/01:00am 9.8 7.8 7.2 84 1.2 NNW 7 9 4 5 - - 0.0
25/12:30am 8.8 6.4 6.8 87 0.9 NNW 9 13 5 7 - - 0.0
25/12:00am 9.2 6.0 7.0 86 1.0 N 13 13 7 7 - - 0.0
 
Date/Time
EST
Temp
°C
App
Temp
°C
Dew
Point
Rel
Hum
%
Delta-T
°C
Wind Press
QNH
hPa
Press
MSL
hPa
Rain
since 9 am
mm
Dir
 
Spd
km/h
Gust
km/h
Spd
kts
Gust
kts
24/11:30pm 8.9 6.1 6.9 87 0.9 NNW 11 15 6 8 - - 0.0
24/11:00pm 9.2 6.0 7.0 86 1.0 NW 13 15 7 8 - - 0.0
24/10:30pm 9.1 6.3 7.1 87 0.9 NNW 11 13 6 7 - - 0.0

Other Formats:

Comma delimited format used in spreadsheet applications
http://www.bom.gov.au/fwo/IDV60801/IDV60801.94846.axf

JavaScript Object Notation format (JSON) in row-major order
http://www.bom.gov.au/fwo/IDV60801/IDV60801.94846.json